Terminal Aerodrome Forecast
Issued by NWS Spokane, WA

Home | Current Version | Previous Version | Text Only | Print | Product List | Glossary On
Versions: 1 2 3 4 5 6 7 8 9 10 11 12 13 14 15 16 17 18 19 20 21 22 23 24 25
000
FTUS46 KOTX 052320
TAFLWS
TAF
KLWS 052320Z 0600/0624 30015G23KT P6SM SCT080
     FM060200 29010KT P6SM FEW080
     FM060600 VRB03KT P6SM FEW080
     FM061700 34008G16KT P6SM SCT070 BKN150=

USA.gov is the U.S. government's official web portal to all federal, state and local government web resources and services.